Time;durP1;ratioP1;P1;durP2;ratioP2;P2;SDS_P1;SDS_P2;PMS_P1;PMS_P2;Temp;Humidity;BMP_temperature;BMP_pressure;BME280_temperature;BME280_humidity;BME280_pressure;Samples;Min_cycle;Max_cycle;Signal;HPM_P1;HPM_P2
2023/09/23 00:01:44;;;;;;;13.13;11.93;;;12.20;99.90;;;;;;5078857;28;39031;-75
2023/09/23 00:04:10;;;;;;;10.38;9.38;;;12.20;99.90;;;;;;5083940;28;37631;-75
2023/09/23 00:06:37;;;;;;;11.50;10.15;;;12.10;99.90;;;;;;5068226;28;37589;-75
2023/09/23 00:09:04;;;;;;;13.57;11.65;;;12.00;99.90;;;;;;5078323;28;37522;-75
2023/09/23 00:11:31;;;;;;;11.55;10.35;;;12.00;99.90;;;;;;5076605;28;38369;-75
2023/09/23 00:13:57;;;;;;;15.70;13.15;;;12.00;99.90;;;;;;5077019;28;39070;-75
2023/09/23 00:16:23;;;;;;;13.68;12.23;;;12.00;99.90;;;;;;5059569;28;37002;-75
2023/09/23 00:18:49;;;;;;;14.48;13.07;;;11.90;99.90;;;;;;5079738;28;38180;-74
2023/09/23 00:21:15;;;;;;;17.02;15.32;;;11.90;99.90;;;;;;5064205;28;39011;-76
2023/09/23 00:23:41;;;;;;;14.95;12.98;;;11.90;99.90;;;;;;5084726;28;37726;-75
2023/09/23 00:26:08;;;;;;;17.85;15.63;;;11.90;99.90;;;;;;5097824;28;38054;-75
2023/09/23 00:28:34;;;;;;;13.65;12.35;;;11.90;99.90;;;;;;5080258;28;36036;-75
2023/09/23 00:31:10;;;;;;;19.13;17.00;;;11.80;99.90;;;;;;5076753;28;40083;-75
2023/09/23 00:33:40;;;;;;;17.25;14.35;;;11.80;99.90;;;;;;5075585;28;47258;-75
2023/09/23 00:36:10;;;;;;;20.00;16.92;;;11.80;99.90;;;;;;5081068;28;38907;-75
2023/09/23 00:38:37;;;;;;;17.77;15.98;;;11.80;99.90;;;;;;5088304;28;37427;-75
2023/09/23 00:41:07;;;;;;;19.67;17.67;;;11.80;99.90;;;;;;5089738;27;38762;-75
2023/09/23 00:43:37;;;;;;;21.58;18.40;;;11.80;99.90;;;;;;5078854;28;37550;-75
2023/09/23 00:46:05;;;;;;;17.40;15.55;;;11.80;99.90;;;;;;5098829;27;38138;-75
2023/09/23 00:48:39;;;;;;;18.65;16.67;;;11.80;99.90;;;;;;5065959;28;36298;-75
2023/09/23 00:51:07;;;;;;;18.77;16.77;;;11.80;99.90;;;;;;5085711;28;38565;-75
2023/09/23 00:53:35;;;;;;;19.10;15.15;;;11.80;99.90;;;;;;5071200;28;38738;-76
2023/09/23 00:56:02;;;;;;;18.38;16.48;;;11.90;99.90;;;;;;5086204;28;37960;-76
2023/09/23 00:58:29;;;;;;;17.35;15.35;;;12.00;99.90;;;;;;5083677;27;48623;-76
2023/09/23 01:00:56;;;;;;;20.45;14.55;;;12.10;99.90;;;;;;5081861;28;39459;-75
2023/09/23 01:03:22;;;;;;;13.10;11.45;;;12.10;99.90;;;;;;5064239;28;37194;-76
2023/09/23 01:06:15;;;;;;;22.20;15.82;;;12.20;99.90;;;;;;5084191;28;38150;-75
2023/09/23 01:08:45;;;;;;;16.27;11.23;;;12.30;99.90;;;;;;5069514;28;47127;-76
2023/09/23 01:11:12;;;;;;;13.73;10.20;;;12.30;99.90;;;;;;5066026;28;37721;-76
2023/09/23 01:13:39;;;;;;;16.45;12.70;;;12.30;99.90;;;;;;5070792;28;37411;-77
2023/09/23 01:16:12;;;;;;;20.10;12.75;;;12.30;99.90;;;;;;5069453;28;37582;-76
2023/09/23 01:18:45;;;;;;;20.10;11.68;;;12.40;99.90;;;;;;5078880;28;35452;-76
2023/09/23 01:21:12;;;;;;;11.80;8.65;;;12.40;99.90;;;;;;5083746;28;38774;-77
2023/09/23 01:23:39;;;;;;;10.60;8.18;;;12.40;99.90;;;;;;5074815;28;37372;-78
2023/09/23 01:26:05;;;;;;;14.65;9.55;;;12.40;99.90;;;;;;5080774;28;38806;-76
2023/09/23 01:28:32;;;;;;;11.38;9.02;;;12.40;99.90;;;;;;5088242;28;37420;-77
2023/09/23 01:31:00;;;;;;;17.70;9.85;;;12.40;99.90;;;;;;5067093;28;39079;-77
2023/09/23 01:33:27;;;;;;;17.55;10.68;;;12.50;99.90;;;;;;5086383;28;48188;-78
2023/09/23 01:35:58;;;;;;;15.27;10.30;;;12.50;99.90;;;;;;5059664;28;38443;-77
2023/09/23 01:38:24;;;;;;;14.25;11.00;;;12.50;99.90;;;;;;5084903;28;37520;-77
2023/09/23 01:40:51;;;;;;;15.20;10.25;;;12.50;99.90;;;;;;5068490;28;37967;-77
2023/09/23 01:43:17;;;;;;;16.27;8.85;;;12.50;99.90;;;;;;5079386;28;38326;-77
2023/09/23 01:45:44;;;;;;;12.40;7.97;;;12.50;99.90;;;;;;5068047;28;38184;-78
2023/09/23 01:48:10;;;;;;;10.50;8.70;;;12.60;99.90;;;;;;5080078;28;37380;-76
2023/09/23 01:50:36;;;;;;;14.52;10.02;;;12.60;99.90;;;;;;5087051;28;38918;-76
2023/09/23 01:53:04;;;;;;;12.38;8.85;;;12.60;99.90;;;;;;5059061;28;38520;-76
2023/09/23 01:55:30;;;;;;;9.45;6.72;;;12.60;99.90;;;;;;5083078;28;37986;-76
2023/09/23 01:57:56;;;;;;;12.43;7.93;;;12.60;99.90;;;;;;5082100;28;36965;-76
2023/09/23 02:00:26;;;;;;;10.98;8.75;;;12.60;99.90;;;;;;5087721;28;39651;-75
2023/09/23 02:02:56;;;;;;;13.02;8.07;;;12.70;99.90;;;;;;5065223;28;37681;-75
2023/09/23 02:05:27;;;;;;;9.50;6.45;;;12.70;99.90;;;;;;5064361;28;37594;-75
2023/09/23 02:07:54;;;;;;;14.73;6.32;;;12.70;99.90;;;;;;5061984;28;37674;-74
2023/09/23 02:10:23;;;;;;;11.60;7.93;;;12.70;99.90;;;;;;5079970;28;39596;-76
2023/09/23 02:12:49;;;;;;;9.73;7.40;;;12.80;99.90;;;;;;5067438;28;37336;-75
2023/09/23 02:15:16;;;;;;;11.43;7.13;;;12.80;99.90;;;;;;5072036;28;38685;-75
2023/09/23 02:17:43;;;;;;;8.05;6.68;;;12.90;99.90;;;;;;5082288;28;37357;-76
2023/09/23 02:20:18;;;;;;;8.55;6.43;;;12.90;99.90;;;;;;5063103;28;38411;-75
2023/09/23 02:22:48;;;;;;;8.57;6.85;;;12.90;99.90;;;;;;5064515;28;37853;-75
2023/09/23 02:25:16;;;;;;;8.70;5.53;;;12.90;99.90;;;;;;5063586;27;37229;-76
2023/09/23 02:27:46;;;;;;;8.55;5.70;;;12.90;99.90;;;;;;5076946;28;37049;-75
2023/09/23 02:30:13;;;;;;;6.10;4.32;;;12.90;99.90;;;;;;5058416;28;37048;-75
2023/09/23 02:32:41;;;;;;;9.30;4.97;;;12.90;99.90;;;;;;5063038;28;36947;-76
2023/09/23 02:35:12;;;;;;;8.50;4.47;;;12.90;99.90;;;;;;5081370;28;36386;-76
2023/09/23 02:37:39;;;;;;;9.52;4.45;;;12.90;99.90;;;;;;5080316;28;37907;-76
2023/09/23 02:40:11;;;;;;;7.10;4.28;;;12.90;99.90;;;;;;5087026;28;39504;-76
2023/09/23 02:42:39;;;;;;;6.63;4.78;;;12.90;99.90;;;;;;5078265;28;39462;-76
2023/09/23 02:45:06;;;;;;;9.80;6.07;;;12.90;99.90;;;;;;5084009;28;37873;-78
2023/09/23 02:47:33;;;;;;;13.07;7.82;;;12.80;99.90;;;;;;5062889;28;35480;-76
2023/09/23 02:49:59;;;;;;;11.63;8.30;;;12.80;99.90;;;;;;5087601;28;39915;-75
2023/09/23 02:52:25;;;;;;;13.90;9.13;;;12.80;99.90;;;;;;5074138;28;37487;-78
2023/09/23 02:54:54;;;;;;;14.85;11.38;;;12.80;99.90;;;;;;5087186;28;38294;-78
2023/09/23 02:57:21;;;;;;;13.57;10.10;;;12.70;99.90;;;;;;5065310;28;36268;-78
2023/09/23 02:59:53;;;;;;;15.63;10.00;;;12.70;99.90;;;;;;5068588;28;39094;-77
2023/09/23 03:02:24;;;;;;;14.88;10.07;;;12.70;99.90;;;;;;5081902;27;39379;-79
2023/09/23 03:04:58;;;;;;;15.50;10.77;;;12.70;99.90;;;;;;5080510;28;37780;-75
2023/09/23 03:07:32;;;;;;;14.60;9.98;;;12.70;99.90;;;;;;5064804;28;37565;-75
2023/09/23 03:10:01;;;;;;;17.58;12.02;;;12.70;99.90;;;;;;5077543;28;38990;-75
2023/09/23 03:12:38;;;;;;;14.48;10.35;;;12.80;99.90;;;;;;5089252;28;38558;-76
2023/09/23 03:15:14;;;;;;;20.67;11.10;;;12.70;99.90;;;;;;5068201;28;36315;-76
2023/09/23 03:17:50;;;;;;;14.35;10.18;;;12.70;99.90;;;;;;5068544;28;36598;-77
2023/09/23 03:20:21;;;;;;;13.02;9.15;;;12.80;99.90;;;;;;5069489;28;37383;-76
2023/09/23 03:22:50;;;;;;;11.27;8.35;;;12.80;99.90;;;;;;5064891;28;37255;-77
2023/09/23 03:25:20;;;;;;;16.58;8.90;;;12.80;99.90;;;;;;5071144;28;38084;-77
2023/09/23 03:27:55;;;;;;;14.98;9.13;;;12.80;99.90;;;;;;5080241;28;37385;-76
2023/09/23 03:30:21;;;;;;;12.70;7.00;;;12.80;99.90;;;;;;5086224;28;39629;-76
2023/09/23 03:32:49;;;;;;;10.07;7.65;;;12.80;99.90;;;;;;5067019;28;37240;-76
2023/09/23 03:35:17;;;;;;;7.80;4.38;;;12.90;99.90;;;;;;5071630;28;38672;-76
2023/09/23 03:37:49;;;;;;;5.03;2.88;;;12.80;99.90;;;;;;5089161;28;37007;-76
2023/09/23 03:40:15;;;;;;;7.73;3.57;;;12.80;99.90;;;;;;5071207;28;38212;-76
2023/09/23 03:42:42;;;;;;;7.03;3.50;;;12.80;99.90;;;;;;5072764;28;37825;-75
2023/09/23 03:45:10;;;;;;;8.05;4.18;;;12.70;99.90;;;;;;5070679;28;37497;-76
2023/09/23 03:47:37;;;;;;;6.95;3.85;;;12.70;99.90;;;;;;5075991;28;36137;-76
2023/09/23 03:50:04;;;;;;;8.15;5.03;;;12.80;99.90;;;;;;5075437;28;39062;-75
2023/09/23 03:52:30;;;;;;;11.73;5.85;;;12.70;99.90;;;;;;5068002;28;47148;-75
2023/09/23 03:54:57;;;;;;;12.02;6.60;;;12.70;99.90;;;;;;5085546;28;37870;-75
2023/09/23 03:57:23;;;;;;;11.65;7.40;;;12.70;99.90;;;;;;5069322;28;37670;-76
2023/09/23 03:59:50;;;;;;;13.73;7.20;;;12.70;99.90;;;;;;5088821;28;38614;-75
2023/09/23 04:02:16;;;;;;;13.18;6.53;;;12.70;99.90;;;;;;5068876;28;37809;-75
2023/09/23 04:04:42;;;;;;;10.13;6.43;;;12.70;99.90;;;;;;5086351;28;37690;-76
2023/09/23 04:07:09;;;;;;;13.43;7.18;;;12.70;99.90;;;;;;5090934;27;36998;-76
2023/09/23 04:09:35;;;;;;;12.23;6.15;;;12.70;99.90;;;;;;5094838;28;40362;-75
2023/09/23 04:12:01;;;;;;;12.68;6.93;;;12.70;99.90;;;;;;5087861;27;38354;-77
2023/09/23 04:14:28;;;;;;;12.57;6.88;;;12.70;99.90;;;;;;5079201;28;36874;-77
2023/09/23 04:16:54;;;;;;;9.65;5.82;;;12.70;99.90;;;;;;5087139;28;35964;-76
2023/09/23 04:19:20;;;;;;;11.88;6.28;;;12.70;99.90;;;;;;5085806;28;39875;-76
2023/09/23 04:21:46;;;;;;;9.25;5.50;;;12.70;99.90;;;;;;5069489;28;41821;-76
2023/09/23 04:24:13;;;;;;;9.07;5.75;;;12.70;99.90;;;;;;5070263;27;37871;-75
2023/09/23 04:26:39;;;;;;;11.75;5.95;;;12.70;99.90;;;;;;5090450;28;38170;-75
2023/09/23 04:29:05;;;;;;;9.25;5.80;;;12.60;99.90;;;;;;5085053;28;38598;-75
2023/09/23 04:31:31;;;;;;;8.88;6.30;;;12.60;99.90;;;;;;5075013;28;37767;-75
2023/09/23 04:33:59;;;;;;;10.07;5.70;;;12.60;99.90;;;;;;5086731;27;38013;-75
2023/09/23 04:36:25;;;;;;;10.07;5.78;;;12.60;99.90;;;;;;5065635;28;37530;-76
2023/09/23 04:38:51;;;;;;;8.48;4.70;;;12.60;99.90;;;;;;5094738;28;38485;-76
2023/09/23 04:41:17;;;;;;;12.02;6.07;;;12.60;99.90;;;;;;5072532;28;37604;-76
2023/09/23 04:43:44;;;;;;;10.32;5.03;;;12.60;99.90;;;;;;5087115;27;38034;-76
2023/09/23 04:46:14;;;;;;;7.10;4.20;;;12.60;99.90;;;;;;5070618;28;36108;-76
2023/09/23 04:48:42;;;;;;;7.57;4.20;;;12.60;99.90;;;;;;5084412;28;38706;-76
2023/09/23 04:51:08;;;;;;;11.43;5.78;;;12.50;99.90;;;;;;5085174;27;39242;-76
2023/09/23 04:53:35;;;;;;;10.05;4.85;;;12.60;99.90;;;;;;5085655;28;38215;-76
2023/09/23 04:56:07;;;;;;;7.55;3.97;;;12.60;99.90;;;;;;5087292;28;35169;-75
2023/09/23 04:58:33;;;;;;;7.80;4.15;;;12.70;99.90;;;;;;5087727;27;47694;-76
2023/09/23 05:00:59;;;;;;;9.93;4.95;;;12.70;99.90;;;;;;5086763;28;38553;-76
2023/09/23 05:03:25;;;;;;;8.05;4.32;;;12.70;99.90;;;;;;5083937;28;37692;-75
2023/09/23 05:05:51;;;;;;;10.70;4.57;;;12.70;99.90;;;;;;5079872;28;37387;-75
2023/09/23 05:08:19;;;;;;;9.45;5.38;;;12.80;99.90;;;;;;5091099;28;20059;-76
2023/09/23 05:10:45;;;;;;;11.32;5.93;;;12.80;99.90;;;;;;5073447;28;37530;-76
2023/09/23 05:13:12;;;;;;;10.68;4.68;;;12.80;99.90;;;;;;5100797;27;38847;-76
2023/09/23 05:15:38;;;;;;;9.60;5.65;;;12.80;99.90;;;;;;5095039;28;37462;-76
2023/09/23 05:18:05;;;;;;;13.02;4.47;;;12.80;99.90;;;;;;5067649;28;38735;-76
2023/09/23 05:20:33;;;;;;;12.70;4.68;;;12.70;99.90;;;;;;5070094;28;38942;-76
2023/09/23 05:23:01;;;;;;;6.55;4.40;;;12.70;99.90;;;;;;5082326;28;37202;-77
2023/09/23 05:25:28;;;;;;;9.43;4.43;;;12.70;99.90;;;;;;5083877;28;48051;-77
2023/09/23 05:27:55;;;;;;;10.35;4.55;;;12.70;99.90;;;;;;5079993;28;39423;-77
2023/09/23 05:30:21;;;;;;;14.55;4.68;;;12.70;99.90;;;;;;5067513;28;37653;-76
2023/09/23 05:32:47;;;;;;;14.40;5.00;;;12.70;99.90;;;;;;5084229;28;38235;-76
2023/09/23 05:35:14;;;;;;;11.60;4.55;;;12.70;99.90;;;;;;5079069;28;37710;-77
2023/09/23 05:37:40;;;;;;;9.07;3.83;;;12.70;99.90;;;;;;5095708;28;38335;-76
2023/09/23 05:42:52;;;;;;;13.83;4.93;;;12.80;99.90;;;;;;5081628;28;38196;-77
2023/09/23 05:45:22;;;;;;;10.90;4.38;;;12.80;99.90;;;;;;5077668;28;37812;-76
2023/09/23 05:47:48;;;;;;;8.27;4.53;;;12.90;99.90;;;;;;5067012;28;38021;-76
2023/09/23 05:50:20;;;;;;;11.30;4.55;;;12.90;99.90;;;;;;5067408;28;37789;-76
2023/09/23 05:52:47;;;;;;;11.13;4.88;;;12.90;99.90;;;;;;5080696;28;38343;-76
2023/09/23 05:55:13;;;;;;;10.70;5.68;;;12.90;99.90;;;;;;5078552;28;37622;-76
2023/09/23 05:57:40;;;;;;;9.88;4.45;;;13.00;99.90;;;;;;5061714;28;38160;-76
2023/09/23 06:00:08;;;;;;;7.72;4.07;;;13.00;99.90;;;;;;5067211;28;39031;-76
2023/09/23 06:02:34;;;;;;;8.73;3.40;;;12.90;99.90;;;;;;5063658;28;38338;-76
2023/09/23 06:05:01;;;;;;;7.00;3.50;;;12.90;99.90;;;;;;5081003;28;36259;-76
2023/09/23 06:07:33;;;;;;;8.38;3.97;;;12.90;99.90;;;;;;5087626;28;39010;-76
2023/09/23 06:10:00;;;;;;;9.65;4.28;;;12.90;99.90;;;;;;5075668;28;37389;-76
2023/09/23 06:12:30;;;;;;;9.85;3.40;;;12.90;99.90;;;;;;5067684;28;38263;-76
2023/09/23 06:14:57;;;;;;;8.10;3.15;;;12.90;99.90;;;;;;5067635;28;36073;-76
2023/09/23 06:17:25;;;;;;;12.30;3.60;;;12.90;99.90;;;;;;5076931;28;38304;-77
2023/09/23 06:19:51;;;;;;;8.07;3.00;;;13.00;99.90;;;;;;5065109;28;38152;-74
2023/09/23 06:22:19;;;;;;;8.60;3.22;;;13.00;99.90;;;;;;5088998;28;38256;-75
2023/09/23 06:24:45;;;;;;;9.55;3.22;;;13.00;99.90;;;;;;5070753;28;36983;-76
2023/09/23 06:27:11;;;;;;;17.42;3.08;;;13.10;99.90;;;;;;5090310;27;37695;-74
2023/09/23 06:29:37;;;;;;;9.95;2.63;;;13.20;99.90;;;;;;5080460;28;37422;-76
2023/09/23 06:32:04;;;;;;;6.63;2.70;;;13.30;99.90;;;;;;5082866;28;38251;-75
2023/09/23 06:34:30;;;;;;;6.10;2.30;;;13.30;99.90;;;;;;5060295;28;36578;-76
2023/09/23 06:36:56;;;;;;;8.98;2.03;;;13.40;99.90;;;;;;5058431;28;38717;-76
2023/09/23 06:39:23;;;;;;;5.63;1.73;;;13.40;99.90;;;;;;5078592;27;38558;-75
2023/09/23 06:41:50;;;;;;;7.70;1.80;;;13.40;99.90;;;;;;5073006;28;39143;-76
2023/09/23 06:44:16;;;;;;;3.83;1.80;;;13.50;99.90;;;;;;5056659;28;36084;-75
2023/09/23 06:46:42;;;;;;;10.10;1.92;;;13.50;99.90;;;;;;5081275;28;39158;-76
2023/09/23 06:49:08;;;;;;;5.90;1.80;;;13.50;99.90;;;;;;5059821;28;37163;-75
2023/09/23 06:51:34;;;;;;;6.65;1.80;;;13.60;99.90;;;;;;5056055;28;38331;-75
2023/09/23 06:54:00;;;;;;;6.93;2.00;;;13.60;99.90;;;;;;5074686;28;37272;-75
2023/09/23 06:56:26;;;;;;;4.97;1.80;;;13.60;99.90;;;;;;5054176;28;46816;-76
2023/09/23 06:58:52;;;;;;;7.90;2.28;;;13.70;99.90;;;;;;5068372;28;39042;-76
2023/09/23 07:01:21;;;;;;;8.15;2.00;;;13.60;99.90;;;;;;5068564;27;36944;-74
2023/09/23 07:03:48;;;;;;;11.13;2.70;;;13.60;99.90;;;;;;5080428;28;37186;-76
2023/09/23 07:06:14;;;;;;;5.50;1.75;;;13.60;99.90;;;;;;5059089;28;39054;-76
2023/09/23 07:08:41;;;;;;;8.05;2.08;;;13.70;99.90;;;;;;5072913;28;38627;-76
2023/09/23 07:11:14;;;;;;;8.48;2.20;;;13.60;99.90;;;;;;5072513;28;36656;-75
2023/09/23 07:13:40;;;;;;;7.18;2.05;;;13.60;99.90;;;;;;5063358;28;35834;-75
2023/09/23 07:16:13;;;;;;;7.57;2.03;;;13.60;99.90;;;;;;5066525;28;40226;-75
2023/09/23 07:18:41;;;;;;;8.52;2.20;;;13.70;99.90;;;;;;5063193;28;38328;-76
2023/09/23 07:21:07;;;;;;;6.10;2.17;;;13.70;99.90;;;;;;5084972;28;38009;-76
2023/09/23 07:23:33;;;;;;;9.80;2.38;;;13.70;99.90;;;;;;5083335;28;38666;-76
2023/09/23 07:26:00;;;;;;;11.07;2.47;;;13.80;99.90;;;;;;5068289;28;39157;-77
2023/09/23 07:28:27;;;;;;;7.82;1.65;;;13.80;99.90;;;;;;5083464;28;49935;-76
2023/09/23 07:30:53;;;;;;;6.20;2.35;;;13.80;99.90;;;;;;5068510;28;37306;-77
2023/09/23 07:33:19;;;;;;;7.40;2.55;;;13.90;99.90;;;;;;5085623;28;37302;-77
2023/09/23 07:35:45;;;;;;;13.00;2.60;;;14.00;99.90;;;;;;5082608;28;40117;-75
2023/09/23 07:38:12;;;;;;;7.70;2.53;;;14.10;99.90;;;;;;5079775;28;38832;-76
2023/09/23 07:40:39;;;;;;;5.53;2.13;;;14.20;99.90;;;;;;5067918;28;38871;-77
2023/09/23 07:43:07;;;;;;;4.70;2.30;;;14.20;99.90;;;;;;5081282;28;37559;-76
2023/09/23 07:45:33;;;;;;;7.03;2.30;;;14.20;99.90;;;;;;5068585;28;37669;-76
2023/09/23 07:48:00;;;;;;;10.25;3.05;;;14.20;99.90;;;;;;5066690;28;38988;-77
2023/09/23 07:50:26;;;;;;;10.70;3.13;;;14.30;99.90;;;;;;5081090;27;38057;-76
2023/09/23 07:52:52;;;;;;;5.97;1.90;;;14.30;99.90;;;;;;5055064;28;36929;-76
2023/09/23 07:55:20;;;;;;;6.40;2.28;;;14.30;99.90;;;;;;5080560;28;38903;-76
2023/09/23 07:57:46;;;;;;;7.38;2.30;;;14.30;99.90;;;;;;5075078;28;37323;-77
2023/09/23 08:00:12;;;;;;;10.35;2.97;;;14.40;99.90;;;;;;5089338;27;38061;-77
2023/09/23 08:02:38;;;;;;;10.18;2.50;;;14.40;99.90;;;;;;5080912;28;36250;-77
2023/09/23 08:05:05;;;;;;;7.05;2.92;;;14.40;99.90;;;;;;5065849;28;37559;-77
2023/09/23 08:07:32;;;;;;;9.43;2.45;;;14.40;99.90;;;;;;5070321;28;37262;-78
2023/09/23 08:09:58;;;;;;;9.13;2.35;;;14.50;99.90;;;;;;5063506;28;37992;-83
2023/09/23 08:12:25;;;;;;;7.32;2.35;;;14.50;99.90;;;;;;5088979;28;37929;-77
2023/09/23 08:14:51;;;;;;;9.68;2.72;;;14.50;99.90;;;;;;5086812;28;39306;-76
2023/09/23 08:17:17;;;;;;;4.53;1.75;;;14.60;99.90;;;;;;5080047;28;39205;-78
2023/09/23 08:19:44;;;;;;;7.75;2.30;;;14.60;99.90;;;;;;5063474;28;37272;-77
2023/09/23 08:22:13;;;;;;;7.57;2.38;;;14.70;99.90;;;;;;5060467;28;35990;-78
2023/09/23 08:24:40;;;;;;;6.38;2.17;;;14.80;99.90;;;;;;5071055;28;39852;-78
2023/09/23 08:27:07;;;;;;;8.30;2.28;;;14.90;99.90;;;;;;5066163;28;38513;-78
2023/09/23 08:29:33;;;;;;;7.30;2.40;;;14.90;99.90;;;;;;5087739;28;38965;-80
2023/09/23 08:31:59;;;;;;;7.40;1.90;;;15.10;99.90;;;;;;5077895;28;37345;-79
2023/09/23 08:34:25;;;;;;;6.53;1.85;;;15.30;99.90;;;;;;5062628;28;39346;-79
2023/09/23 08:36:52;;;;;;;5.70;1.85;;;15.30;99.90;;;;;;5069392;28;37636;-80
2023/09/23 08:39:19;;;;;;;7.45;1.90;;;15.30;99.90;;;;;;5063617;28;37440;-80
2023/09/23 08:41:53;;;;;;;7.47;1.88;;;15.30;99.90;;;;;;5076590;28;37306;-80
2023/09/23 08:44:22;;;;;;;4.95;1.58;;;15.20;99.90;;;;;;5075474;28;39163;-79
2023/09/23 08:46:50;;;;;;;3.95;1.60;;;15.20;99.90;;;;;;5064578;28;38114;-79
2023/09/23 08:49:21;;;;;;;5.85;1.75;;;15.10;99.90;;;;;;5059684;28;37185;-77
2023/09/23 08:51:51;;;;;;;4.55;1.55;;;15.20;99.90;;;;;;5077363;28;37452;-78
2023/09/23 08:54:22;;;;;;;5.82;1.83;;;15.20;99.90;;;;;;5068151;28;39130;-76
2023/09/23 08:56:52;;;;;;;3.67;1.50;;;15.30;99.90;;;;;;5083741;28;38496;-77
2023/09/23 08:59:18;;;;;;;6.90;1.90;;;15.30;99.90;;;;;;5066870;28;38728;-76
2023/09/23 09:01:44;;;;;;;8.75;1.70;;;15.10;99.90;;;;;;5066167;28;36118;-77
2023/09/23 09:04:13;;;;;;;7.47;2.08;;;15.10;99.90;;;;;;5083518;28;39840;-77
2023/09/23 09:06:50;;;;;;;5.22;1.50;;;15.10;99.90;;;;;;5066963;28;37363;-77
2023/09/23 09:09:17;;;;;;;5.28;1.35;;;15.20;99.90;;;;;;5076107;28;39073;-78
2023/09/23 09:11:51;;;;;;;3.53;1.48;;;15.30;99.90;;;;;;5063925;28;36324;-79
2023/09/23 09:14:18;;;;;;;7.70;1.90;;;15.40;99.90;;;;;;5076998;28;38901;-79
2023/09/23 09:16:45;;;;;;;4.25;1.60;;;15.30;99.90;;;;;;5059359;28;37628;-78
2023/09/23 09:19:11;;;;;;;7.43;2.03;;;15.30;99.90;;;;;;5067657;28;37064;-79
2023/09/23 09:21:37;;;;;;;4.22;1.35;;;15.30;99.90;;;;;;5083538;28;36966;-79
2023/09/23 09:24:07;;;;;;;2.38;1.10;;;15.30;99.90;;;;;;5066698;28;36923;-80
2023/09/23 09:26:35;;;;;;;3.88;1.38;;;15.20;99.90;;;;;;5081511;28;38479;-78
2023/09/23 09:29:02;;;;;;;4.45;1.35;;;15.30;99.90;;;;;;5063929;28;37328;-78
2023/09/23 09:31:33;;;;;;;3.97;1.17;;;15.30;99.90;;;;;;5057630;28;36109;-80
2023/09/23 09:34:11;;;;;;;5.38;1.50;;;15.30;99.90;;;;;;5067722;28;38080;-78
2023/09/23 09:36:39;;;;;;;5.88;1.38;;;15.50;99.90;;;;;;5067468;28;47287;-80
2023/09/23 09:39:08;;;;;;;4.82;1.63;;;15.90;99.90;;;;;;5071976;28;37142;-76
2023/09/23 09:41:50;;;;;;;3.83;1.02;;;16.10;99.90;;;;;;5070011;28;36058;-78
2023/09/23 09:44:20;;;;;;;5.53;1.42;;;16.40;99.90;;;;;;5067966;28;38246;-80
2023/09/23 09:46:48;;;;;;;6.80;1.10;;;16.60;99.90;;;;;;5083170;28;38453;-78
2023/09/23 09:49:16;;;;;;;6.20;1.10;;;16.80;99.90;;;;;;5077223;28;37998;-79
2023/09/23 09:51:46;;;;;;;4.13;1.30;;;17.10;99.90;;;;;;5063821;28;36459;-79
2023/09/23 09:54:13;;;;;;;3.05;0.80;;;17.00;99.90;;;;;;5078984;28;39563;-82
2023/09/23 09:56:40;;;;;;;10.75;1.33;;;16.80;99.90;;;;;;5060706;28;37249;-81
2023/09/23 09:59:06;;;;;;;5.28;1.13;;;16.60;99.90;;;;;;5049634;28;37451;-81
2023/09/23 10:01:35;;;;;;;2.97;0.85;;;16.50;99.90;;;;;;5059529;28;35543;-81
2023/09/23 10:04:11;;;;;;;8.30;1.48;;;16.50;99.90;;;;;;5058130;28;37981;-80
2023/09/23 10:06:41;;;;;;;4.97;1.20;;;16.40;99.90;;;;;;5067865;28;48193;-80
2023/09/23 10:09:17;;;;;;;2.97;0.85;;;16.50;99.90;;;;;;5049199;28;39385;-80
2023/09/23 10:11:53;;;;;;;6.50;1.10;;;16.60;99.90;;;;;;5052101;28;38914;-80
2023/09/23 10:14:20;;;;;;;2.83;0.88;;;16.50;99.90;;;;;;5052960;28;39144;-80
2023/09/23 10:16:59;;;;;;;3.15;0.70;;;16.50;99.90;;;;;;5052519;28;39285;-79
2023/09/23 10:19:32;;;;;;;4.70;1.00;;;16.70;99.90;;;;;;5072787;28;38740;-79
2023/09/23 10:22:21;;;;;;;4.15;1.05;;;17.10;99.90;;;;;;5055061;28;35965;-79
2023/09/23 10:25:04;;;;;;;7.30;1.20;;;17.20;99.90;;;;;;5056877;28;46940;-78
2023/09/23 10:27:32;;;;;;;4.93;1.08;;;17.40;99.90;;;;;;5050221;28;36894;-78
2023/09/23 10:29:59;;;;;;;3.70;0.73;;;17.60;99.90;;;;;;5058936;28;36869;-78
2023/09/23 10:32:26;;;;;;;4.07;1.08;;;17.80;99.90;;;;;;5068233;28;36933;-78
2023/09/23 10:34:55;;;;;;;4.75;0.77;;;17.80;99.90;;;;;;5067150;28;37930;-77
2023/09/23 10:37:32;;;;;;;3.08;1.00;;;17.80;99.90;;;;;;5066931;28;38163;-77
2023/09/23 10:40:12;;;;;;;3.78;0.85;;;17.60;99.90;;;;;;5053870;28;37379;-78
2023/09/23 10:42:42;;;;;;;1.30;0.70;;;17.50;99.90;;;;;;5048000;28;47321;-76
2023/09/23 10:45:09;;;;;;;4.88;1.02;;;17.50;99.90;;;;;;5048836;28;40221;-77
2023/09/23 10:47:36;;;;;;;5.88;1.30;;;17.50;99.90;;;;;;5056547;28;37241;-79
2023/09/23 10:50:06;;;;;;;4.40;1.20;;;17.50;99.90;;;;;;5069861;28;39049;-80
2023/09/23 10:52:33;;;;;;;6.28;1.05;;;17.50;99.90;;;;;;5074708;28;48626;-78
2023/09/23 10:54:59;;;;;;;5.43;1.13;;;17.50;99.90;;;;;;5067861;28;37650;-78
2023/09/23 10:57:27;;;;;;;3.80;1.15;;;17.50;99.90;;;;;;5078013;28;38119;-77
2023/09/23 10:59:54;;;;;;;5.95;1.35;;;17.40;99.90;;;;;;5063676;28;36879;-78
2023/09/23 11:02:22;;;;;;;5.97;1.20;;;17.30;99.90;;;;;;5083118;28;37982;-78
2023/09/23 11:04:49;;;;;;;5.00;1.30;;;17.30;99.90;;;;;;5066633;28;39794;-78
2023/09/23 11:07:16;;;;;;;5.18;1.25;;;17.50;99.90;;;;;;5064875;28;38019;-78
2023/09/23 11:09:46;;;;;;;5.20;1.15;;;17.60;99.90;;;;;;5053816;28;36970;-78
2023/09/23 11:12:15;;;;;;;7.18;1.58;;;17.70;99.90;;;;;;5059255;28;38720;-78
2023/09/23 11:14:48;;;;;;;6.53;1.42;;;17.70;99.90;;;;;;5068441;28;38537;-78
2023/09/23 11:17:25;;;;;;;6.10;1.38;;;17.70;99.90;;;;;;5070568;28;38969;-78
2023/09/23 11:19:55;;;;;;;4.22;1.63;;;17.80;99.90;;;;;;5057906;28;37986;-78
2023/09/23 11:22:26;;;;;;;7.53;1.38;;;17.80;99.90;;;;;;5056490;27;36097;-78
2023/09/23 11:24:54;;;;;;;8.32;1.17;;;17.80;99.90;;;;;;5057483;28;37628;-78
2023/09/23 11:27:24;;;;;;;3.97;1.40;;;17.70;99.90;;;;;;5064243;28;38388;-77
2023/09/23 11:29:51;;;;;;;5.88;1.15;;;17.60;99.90;;;;;;5093193;28;38818;-78
2023/09/23 11:32:24;;;;;;;4.97;1.17;;;17.70;99.90;;;;;;5071814;28;36045;-77
2023/09/23 11:34:52;;;;;;;5.60;1.20;;;17.70;99.90;;;;;;5083826;28;38915;-77
2023/09/23 11:37:22;;;;;;;9.52;1.70;;;17.80;99.90;;;;;;5068190;28;38054;-78
2023/09/23 11:39:49;;;;;;;3.53;1.35;;;17.90;99.90;;;;;;5073667;28;37829;-76
2023/09/23 11:42:15;;;;;;;6.38;1.27;;;17.80;99.90;;;;;;5063592;28;36089;-76
2023/09/23 11:44:42;;;;;;;2.55;0.90;;;17.80;99.90;;;;;;5079227;28;40041;-76
2023/09/23 11:47:09;;;;;;;4.28;1.17;;;17.90;99.90;;;;;;5081777;27;38960;-76
2023/09/23 11:49:36;;;;;;;3.42;1.02;;;18.10;99.90;;;;;;5074762;28;37931;-76
2023/09/23 11:52:12;;;;;;;5.22;1.20;;;18.20;99.90;;;;;;5060302;28;36225;-76
2023/09/23 11:54:40;;;;;;;2.97;0.93;;;18.20;99.90;;;;;;5063848;28;38598;-75
2023/09/23 11:57:06;;;;;;;2.90;1.23;;;18.30;99.90;;;;;;5058878;28;38693;-76
2023/09/23 11:59:32;;;;;;;5.95;1.17;;;18.40;99.90;;;;;;5079037;28;38336;-76
2023/09/23 12:01:58;;;;;;;2.78;1.00;;;18.70;99.90;;;;;;5089874;28;38056;-76
2023/09/23 12:04:24;;;;;;;4.43;1.48;;;18.90;99.90;;;;;;5087885;28;38691;-76
2023/09/23 12:06:50;;;;;;;4.25;1.48;;;18.80;96.60;;;;;;5068549;28;38327;-75
2023/09/23 12:09:16;;;;;;;6.95;1.15;;;18.70;99.90;;;;;;5071591;27;37254;-75
2023/09/23 12:11:43;;;;;;;2.95;1.15;;;18.70;99.90;;;;;;5074302;28;38529;-76
2023/09/23 12:14:09;;;;;;;3.95;1.10;;;18.60;99.90;;;;;;5062885;28;39174;-76
2023/09/23 12:16:36;;;;;;;9.27;1.20;;;18.40;99.20;;;;;;5086781;28;38539;-76
2023/09/23 12:19:02;;;;;;;5.38;1.20;;;18.10;99.90;;;;;;5070635;28;37132;-76
2023/09/23 12:21:30;;;;;;;8.27;1.25;;;17.90;99.90;;;;;;5082660;28;37005;-75
2023/09/23 12:23:59;;;;;;;4.72;1.08;;;17.80;99.90;;;;;;5071859;28;37709;-76
2023/09/23 12:26:26;;;;;;;4.50;1.00;;;17.80;99.90;;;;;;5067948;27;37255;-77
2023/09/23 12:28:52;;;;;;;2.35;1.08;;;17.80;99.90;;;;;;5063843;28;38196;-77
2023/09/23 12:31:18;;;;;;;2.90;1.08;;;17.80;99.90;;;;;;5081205;28;37152;-76
2023/09/23 12:33:44;;;;;;;6.13;0.93;;;17.90;99.90;;;;;;5077830;28;39115;-77
2023/09/23 12:36:11;;;;;;;3.53;0.98;;;17.90;99.90;;;;;;5081621;27;38141;-78
2023/09/23 12:38:37;;;;;;;4.82;1.00;;;17.90;99.90;;;;;;5070294;28;36823;-78
2023/09/23 12:41:04;;;;;;;4.03;1.08;;;17.90;99.90;;;;;;5078639;28;36922;-78
2023/09/23 12:43:30;;;;;;;4.22;0.93;;;17.80;99.90;;;;;;5071195;28;38716;-76
2023/09/23 12:45:56;;;;;;;3.53;1.00;;;17.70;99.90;;;;;;5090290;27;39692;-78
2023/09/23 12:48:22;;;;;;;5.72;1.45;;;17.70;99.90;;;;;;5091545;27;37624;-76